createdAt,value
2023-03-13T00:02:01.819Z,99496.00
2023-03-13T00:04:29.108Z,99495.00
2023-03-13T00:06:56.364Z,99504.00
2023-03-13T00:09:24.411Z,99501.00
2023-03-13T00:11:51.713Z,99494.00
2023-03-13T00:14:19.040Z,99495.00
2023-03-13T00:16:46.447Z,99488.00
2023-03-13T00:19:15.160Z,99490.00
2023-03-13T00:21:42.510Z,99493.00
2023-03-13T00:24:11.443Z,99494.00
2023-03-13T00:26:39.382Z,99495.00
2023-03-13T00:29:06.683Z,99493.00
2023-03-13T00:31:34.060Z,99493.00
2023-03-13T00:34:03.272Z,99490.00
2023-03-13T00:36:32.351Z,99489.00
2023-03-13T00:38:59.799Z,99492.00
2023-03-13T00:41:28.830Z,99487.00
2023-03-13T00:43:57.440Z,99483.00
2023-03-13T00:46:26.655Z,99485.00
2023-03-13T00:48:54.069Z,99485.00
2023-03-13T00:51:23.388Z,99484.00
2023-03-13T00:53:50.773Z,99484.00
2023-03-13T00:56:19.530Z,99478.00
2023-03-13T00:58:48.302Z,99478.00
2023-03-13T01:01:18.499Z,99476.00
2023-03-13T01:03:47.984Z,99482.00
2023-03-13T01:06:17.005Z,99472.00
2023-03-13T01:08:44.303Z,99454.00
2023-03-13T01:11:13.184Z,99468.00
2023-03-13T01:13:40.744Z,99470.00
2023-03-13T01:16:10.318Z,99468.00
2023-03-13T01:18:40.158Z,99470.00
2023-03-13T01:21:07.849Z,99474.00
2023-03-13T01:23:35.195Z,99461.00
2023-03-13T01:26:03.920Z,99459.00
2023-03-13T01:28:31.744Z,99457.00
2023-03-13T01:31:00.180Z,99460.00
2023-03-13T01:33:27.529Z,99466.00
2023-03-13T01:36:03.236Z,99465.00
2023-03-13T01:38:30.617Z,99454.00
2023-03-13T01:40:57.864Z,99454.00
2023-03-13T01:43:27.798Z,99449.00
2023-03-13T01:46:00.457Z,99449.00
2023-03-13T01:48:34.392Z,99443.00
2023-03-13T01:51:06.692Z,99446.00
2023-03-13T01:53:36.725Z,99441.00
2023-03-13T01:56:07.770Z,99438.00
2023-03-13T01:58:35.840Z,99422.00
2023-03-13T02:01:03.641Z,99429.00
2023-03-13T02:03:31.429Z,99429.00
2023-03-13T02:05:59.922Z,99421.00
2023-03-13T02:08:36.226Z,99417.00
2023-03-13T02:11:10.314Z,99409.00
2023-03-13T02:13:37.607Z,99413.00
2023-03-13T02:16:06.015Z,99403.00
2023-03-13T02:18:33.716Z,99393.00
2023-03-13T02:21:10.111Z,99397.00
2023-03-13T02:23:49.914Z,99388.00
2023-03-13T02:26:18.023Z,99390.00
2023-03-13T02:28:45.385Z,99407.00
2023-03-13T02:31:13.130Z,99396.00
2023-03-13T02:33:42.575Z,99399.00
2023-03-13T02:36:11.420Z,99393.00
2023-03-13T02:38:44.699Z,99391.00
2023-03-13T02:41:13.320Z,99389.00
2023-03-13T02:43:41.417Z,99388.00
2023-03-13T02:46:10.509Z,99389.00
2023-03-13T02:48:40.462Z,99388.00
2023-03-13T02:51:14.466Z,99390.00
2023-03-13T02:53:43.116Z,99382.00
2023-03-13T02:56:12.328Z,99385.00
2023-03-13T02:58:49.781Z,99390.00
2023-03-13T03:01:17.850Z,99385.00
2023-03-13T03:03:45.232Z,99389.00
2023-03-13T03:06:12.532Z,99389.00
2023-03-13T03:08:40.893Z,99384.00
2023-03-13T03:11:08.500Z,99391.00
2023-03-13T03:13:36.077Z,99377.00
2023-03-13T03:16:07.746Z,99381.00
2023-03-13T03:18:35.463Z,99370.00
2023-03-13T03:21:05.521Z,99358.00
2023-03-13T03:23:33.424Z,99365.00
2023-03-13T03:26:00.720Z,99353.00
2023-03-13T03:28:28.073Z,99343.00
2023-03-13T03:30:55.810Z,99344.00
2023-03-13T03:33:24.415Z,99339.00
2023-03-13T03:35:51.805Z,99338.00
2023-03-13T03:38:19.187Z,99329.00
2023-03-13T03:40:46.432Z,99333.00
2023-03-13T03:43:13.734Z,99326.00
2023-03-13T03:45:41.087Z,99321.00
2023-03-13T03:48:08.390Z,99324.00
2023-03-13T03:50:36.349Z,99322.00
2023-03-13T03:53:03.793Z,99315.00
2023-03-13T03:55:31.113Z,99296.00
2023-03-13T03:57:58.368Z,99306.00
2023-03-13T04:00:27.123Z,99295.00
2023-03-13T04:02:55.253Z,99299.00
2023-03-13T04:05:22.621Z,99282.00
2023-03-13T04:07:50.688Z,99272.00
2023-03-13T04:10:20.504Z,99286.00
2023-03-13T04:12:51.946Z,99283.00
2023-03-13T04:15:26.087Z,99290.00
2023-03-13T04:17:56.950Z,99281.00
2023-03-13T04:20:33.354Z,99275.00
2023-03-13T04:23:16.738Z,99267.00
2023-03-13T04:25:50.407Z,99253.00
2023-03-13T04:28:27.681Z,99259.00
2023-03-13T04:31:01.046Z,99260.00
2023-03-13T04:33:43.809Z,99250.00
2023-03-13T04:36:20.007Z,99237.00
2023-03-13T04:38:58.862Z,99238.00
2023-03-13T04:41:38.650Z,99231.00
2023-03-13T04:44:14.765Z,99231.00
2023-03-13T04:46:56.170Z,99223.00
2023-03-13T04:49:36.951Z,99210.00
2023-03-13T04:52:22.633Z,99203.00
2023-03-13T04:55:11.132Z,99198.00
2023-03-13T04:58:05.882Z,99192.00
2023-03-13T05:00:40.857Z,99188.00
2023-03-13T05:03:20.930Z,99186.00
2023-03-13T05:06:06.396Z,99179.00
2023-03-13T05:08:35.503Z,99170.00
2023-03-13T05:11:03.714Z,99167.00
2023-03-13T05:13:31.191Z,99164.00
2023-03-13T05:15:58.628Z,99163.00
2023-03-13T05:18:26.157Z,99153.00
2023-03-13T05:20:53.395Z,99147.00
2023-03-13T05:23:20.849Z,99146.00
2023-03-13T05:25:48.101Z,99134.00
2023-03-13T05:28:16.156Z,99132.00
2023-03-13T05:30:43.712Z,99136.00
2023-03-13T05:33:14.460Z,99130.00
2023-03-13T05:35:51.547Z,99121.00
2023-03-13T05:41:43.317Z,99114.00
2023-03-13T05:44:46.331Z,99106.00
2023-03-13T05:48:09.550Z,99100.00
2023-03-13T05:52:06.486Z,99099.00
2023-03-13T05:54:24.524Z,99098.00
2023-03-13T05:57:12.096Z,99110.00
2023-03-13T05:59:53.136Z,99100.00
2023-03-13T06:02:51.516Z,99101.00
2023-03-13T06:06:01.263Z,99106.00
2023-03-13T06:11:39.621Z,99104.00
2023-03-13T06:14:30.748Z,99094.00
2023-03-13T06:17:42.041Z,99082.00
2023-03-13T06:20:48.037Z,99077.00
2023-03-13T06:23:50.942Z,99068.00
2023-03-13T06:26:36.592Z,99057.00
2023-03-13T06:29:39.904Z,99051.00
2023-03-13T06:33:00.042Z,99033.00
2023-03-13T06:35:56.243Z,99029.00
2023-03-13T06:38:36.146Z,99018.00
2023-03-13T06:41:19.158Z,99017.00
2023-03-13T06:44:06.296Z,99018.00
2023-03-13T06:46:48.553Z,99022.00
2023-03-13T06:49:23.446Z,99002.00
2023-03-13T06:52:37.454Z,99003.00
2023-03-13T06:55:16.411Z,99011.00
2023-03-13T06:58:00.917Z,99015.00
2023-03-13T07:00:41.154Z,99000.00
2023-03-13T07:06:21.665Z,99008.00
2023-03-13T07:09:02.815Z,99007.00
2023-03-13T07:11:42.318Z,98998.00
2023-03-13T07:17:31.958Z,98982.00
2023-03-13T07:20:10.726Z,98976.00
2023-03-13T07:22:46.701Z,98988.00
2023-03-13T07:25:32.800Z,98968.00
2023-03-13T07:28:06.712Z,98963.00
2023-03-13T07:30:48.510Z,98956.00
2023-03-13T07:33:27.907Z,98943.00
2023-03-13T07:36:03.442Z,98933.00
2023-03-13T07:38:49.061Z,98950.00
2023-03-13T07:41:55.147Z,98947.00
2023-03-13T07:44:25.179Z,98934.00
2023-03-13T07:47:02.806Z,98923.00
2023-03-13T07:49:46.283Z,98930.00
2023-03-13T07:52:23.098Z,98935.00
2023-03-13T07:55:14.673Z,98945.00
2023-03-13T07:57:53.431Z,98955.00
2023-03-13T08:00:29.576Z,98958.00
2023-03-13T08:07:04.483Z,98967.00
2023-03-13T08:10:25.228Z,98964.00
2023-03-13T08:13:17.778Z,98967.00
2023-03-13T08:16:19.456Z,98965.00
2023-03-13T08:22:46.466Z,98972.00
2023-03-13T08:29:15.085Z,98962.00
2023-03-13T08:39:05.929Z,98930.00
2023-03-13T08:41:36.270Z,98926.00
2023-03-13T08:44:06.816Z,98917.00
2023-03-13T08:46:37.725Z,98922.00
2023-03-13T08:49:08.061Z,98929.00
2023-03-13T08:51:37.892Z,98921.00
2023-03-13T08:54:06.825Z,98913.00
2023-03-13T09:00:36.701Z,98902.00
2023-03-13T09:03:23.640Z,98923.00
2023-03-13T09:06:17.674Z,98917.00
2023-03-13T09:09:10.710Z,98920.00
2023-03-13T09:12:34.409Z,98913.00
2023-03-13T09:19:27.099Z,98917.00
2023-03-13T09:22:37.739Z,98913.00
2023-03-13T09:29:07.271Z,98918.00
2023-03-13T09:35:25.018Z,98907.00
2023-03-13T09:38:41.736Z,98896.00
2023-03-13T09:45:05.039Z,98891.00
2023-03-13T09:48:32.348Z,98883.00
2023-03-13T09:55:46.588Z,98873.00
2023-03-13T10:11:32.871Z,98890.00
2023-03-13T10:14:05.301Z,98885.00
2023-03-13T10:16:38.839Z,98889.00
2023-03-13T10:19:13.687Z,98872.00
2023-03-13T10:21:44.098Z,98868.00
2023-03-13T10:24:18.355Z,98869.00
2023-03-13T10:26:45.719Z,98846.00
2023-03-13T10:29:21.904Z,98841.00
2023-03-13T10:31:57.628Z,98849.00
2023-03-13T10:34:26.162Z,98846.00
2023-03-13T10:36:58.910Z,98866.00
2023-03-13T10:39:28.263Z,98869.00
2023-03-13T10:42:08.973Z,98859.00
2023-03-13T10:44:36.367Z,98863.00
2023-03-13T10:47:06.002Z,98857.00
2023-03-13T10:49:33.466Z,98869.00
2023-03-13T10:52:02.380Z,98868.00
2023-03-13T10:54:31.539Z,98886.00
2023-03-13T10:57:27.372Z,98883.00
2023-03-13T10:59:55.669Z,98897.00
2023-03-13T11:02:27.458Z,98905.00
2023-03-13T11:04:55.560Z,98900.00
2023-03-13T11:07:28.497Z,98898.00
2023-03-13T11:10:01.127Z,98895.00
2023-03-13T11:12:32.665Z,98901.00
2023-03-13T11:15:01.211Z,98898.00
2023-03-13T11:17:35.771Z,98904.00
2023-03-13T11:20:12.220Z,98898.00
2023-03-13T11:22:49.147Z,98901.00
2023-03-13T11:25:22.912Z,98892.00
2023-03-13T11:28:06.586Z,98890.00
2023-03-13T11:30:52.162Z,98896.00
2023-03-13T11:33:29.007Z,98886.00
2023-03-13T11:36:01.319Z,98890.00
2023-03-13T11:38:33.033Z,98886.00
2023-03-13T11:41:13.220Z,98860.00
2023-03-13T11:43:54.710Z,98870.00
2023-03-13T11:46:40.262Z,98869.00
2023-03-13T11:49:51.317Z,98856.00
2023-03-13T11:52:38.251Z,98849.00
2023-03-13T11:55:37.661Z,98836.00
2023-03-13T11:58:24.476Z,98831.00
2023-03-13T12:00:57.873Z,98833.00
2023-03-13T12:03:36.352Z,98835.00
2023-03-13T12:06:09.255Z,98820.00
2023-03-13T12:08:43.530Z,98818.00
2023-03-13T12:11:17.668Z,98806.00
2023-03-13T12:13:50.602Z,98794.00
2023-03-13T12:16:23.414Z,98770.00
2023-03-13T12:18:52.154Z,98764.00
2023-03-13T12:21:26.029Z,98772.00
2023-03-13T12:24:01.127Z,98767.00
2023-03-13T12:26:37.069Z,98765.00
2023-03-13T12:29:12.858Z,98766.00
2023-03-13T12:31:43.394Z,98766.00
2023-03-13T12:34:16.544Z,98748.00
2023-03-13T12:36:49.680Z,98753.00
2023-03-13T12:39:28.497Z,98746.00
2023-03-13T12:42:16.907Z,98753.00
2023-03-13T12:44:45.511Z,98749.00
2023-03-13T12:47:22.970Z,98738.00
2023-03-13T12:50:11.667Z,98758.00
2023-03-13T12:52:50.539Z,98763.00
2023-03-13T12:55:35.157Z,98759.00
2023-03-13T12:58:28.316Z,98766.00
2023-03-13T13:01:01.865Z,98766.00
2023-03-13T13:03:35.592Z,98759.00
2023-03-13T13:06:06.766Z,98759.00
2023-03-13T13:08:37.244Z,98741.00
2023-03-13T13:11:41.211Z,98743.00
2023-03-13T13:14:53.043Z,98749.00
2023-03-13T13:17:28.553Z,98737.00
2023-03-13T13:19:56.940Z,98733.00
2023-03-13T13:22:46.855Z,98731.00
2023-03-13T13:25:31.109Z,98735.00
2023-03-13T13:28:22.310Z,98694.00
2023-03-13T13:30:50.668Z,98685.00
2023-03-13T13:33:39.983Z,98701.00
2023-03-13T13:36:40.825Z,98741.00
2023-03-13T13:39:35.546Z,98734.00
2023-03-13T13:42:41.371Z,98737.00
2023-03-13T13:45:28.580Z,98744.00
2023-03-13T13:48:25.013Z,98753.00
2023-03-13T13:51:27.938Z,98738.00
2023-03-13T13:53:59.694Z,98750.00
2023-03-13T13:56:37.552Z,98752.00
2023-03-13T13:59:26.739Z,98749.00
2023-03-13T14:02:21.185Z,98757.00
2023-03-13T14:04:52.576Z,98756.00
2023-03-13T14:07:27.823Z,98734.00
2023-03-13T14:10:03.950Z,98738.00
2023-03-13T14:12:32.927Z,98736.00
2023-03-13T14:15:15.380Z,98718.00
2023-03-13T14:17:44.543Z,98706.00
2023-03-13T14:20:26.078Z,98713.00
2023-03-13T14:22:55.530Z,98703.00
2023-03-13T14:25:24.662Z,98717.00
2023-03-13T14:27:53.836Z,98710.00
2023-03-13T14:30:22.881Z,98708.00
2023-03-13T14:32:52.494Z,98707.00
2023-03-13T14:35:22.428Z,98712.00
2023-03-13T14:37:52.704Z,98700.00
2023-03-13T14:40:27.633Z,98714.00
2023-03-13T14:42:57.599Z,98707.00
2023-03-13T14:45:31.272Z,98709.00
2023-03-13T14:48:16.324Z,98705.00
2023-03-13T14:50:43.999Z,98693.00
2023-03-13T14:53:16.477Z,98686.00
2023-03-13T14:55:48.602Z,98694.00
2023-03-13T14:58:27.950Z,98696.00
2023-03-13T15:00:58.219Z,98691.00
2023-03-13T15:03:30.793Z,98687.00
2023-03-13T15:06:22.372Z,98694.00
2023-03-13T15:09:14.209Z,98692.00
2023-03-13T15:11:54.673Z,98682.00
2023-03-13T15:14:38.076Z,98672.00
2023-03-13T15:17:15.133Z,98666.00
2023-03-13T15:19:43.446Z,98665.00
2023-03-13T15:22:14.681Z,98656.00
2023-03-13T15:24:43.274Z,98658.00
2023-03-13T15:27:18.042Z,98659.00
2023-03-13T15:29:45.738Z,98653.00
2023-03-13T15:32:18.987Z,98628.00
2023-03-13T15:34:46.645Z,98631.00
2023-03-13T15:37:14.119Z,98640.00
2023-03-13T15:39:41.916Z,98624.00
2023-03-13T15:42:09.356Z,98621.00
2023-03-13T15:44:37.463Z,98593.00
2023-03-13T15:47:05.078Z,98607.00
2023-03-13T15:49:32.415Z,98590.00
2023-03-13T15:51:59.818Z,98599.00
2023-03-13T15:54:27.199Z,98607.00
2023-03-13T15:56:54.658Z,98601.00
2023-03-13T15:59:22.008Z,98598.00
2023-03-13T16:01:50.201Z,98593.00
2023-03-13T16:04:17.492Z,98592.00
2023-03-13T16:06:44.754Z,98588.00
2023-03-13T16:09:17.602Z,98577.00
2023-03-13T16:20:57.685Z,98551.00
2023-03-13T16:28:13.964Z,98541.00
2023-03-13T16:36:10.053Z,98535.00
2023-03-13T16:55:13.062Z,98497.00
2023-03-13T17:01:38.525Z,98502.00
2023-03-13T17:11:36.359Z,98516.00
2023-03-13T17:17:51.046Z,98499.00
2023-03-13T17:20:39.295Z,98488.00
2023-03-13T17:23:30.697Z,98489.00
2023-03-13T17:26:39.232Z,98486.00
2023-03-13T17:29:36.805Z,98477.00
2023-03-13T17:46:03.565Z,98487.00
2023-03-13T17:48:47.889Z,98480.00
2023-03-13T17:52:03.584Z,98480.00
2023-03-13T17:58:06.611Z,98471.00
2023-03-13T18:00:51.401Z,98466.00
2023-03-13T18:03:45.397Z,98467.00
2023-03-13T18:06:29.687Z,98469.00
2023-03-13T18:09:16.245Z,98466.00
2023-03-13T18:12:02.201Z,98459.00
2023-03-13T18:17:33.867Z,98448.00
2023-03-13T18:20:30.023Z,98445.00
2023-03-13T18:23:14.802Z,98447.00
2023-03-13T18:26:15.953Z,98444.00
2023-03-13T18:29:02.724Z,98436.00
2023-03-13T18:31:53.031Z,98429.00
2023-03-13T18:34:32.117Z,98425.00
2023-03-13T18:37:23.239Z,98421.00
2023-03-13T18:40:31.997Z,98422.00
2023-03-13T18:43:33.859Z,98417.00
2023-03-13T18:46:19.851Z,98429.00
2023-03-13T18:49:18.140Z,98447.00
2023-03-13T18:52:51.020Z,98469.00
2023-03-13T19:03:29.228Z,98469.00
2023-03-13T19:06:19.720Z,98474.00
2023-03-13T19:08:57.000Z,98477.00
2023-03-13T19:11:29.630Z,98496.00
2023-03-13T19:14:00.081Z,98522.00
2023-03-13T19:16:35.416Z,98578.00
2023-03-13T19:19:16.452Z,98605.00
2023-03-13T19:21:44.216Z,98605.00
2023-03-13T19:24:16.962Z,98578.00
2023-03-13T19:26:53.988Z,98597.00
2023-03-13T19:29:26.329Z,98574.00
2023-03-13T19:32:07.444Z,98568.00
2023-03-13T19:34:49.032Z,98553.00
2023-03-13T19:37:18.364Z,98517.00
2023-03-13T19:39:50.908Z,98502.00
2023-03-13T19:42:18.386Z,98494.00
2023-03-13T19:44:54.500Z,98498.00
2023-03-13T19:47:33.227Z,98496.00
2023-03-13T19:50:02.214Z,98466.00
2023-03-13T19:52:38.718Z,98466.00
2023-03-13T19:55:15.602Z,98462.00
2023-03-13T19:57:45.311Z,98463.00
2023-03-13T20:06:50.890Z,98436.00
2023-03-13T20:09:51.483Z,98421.00
2023-03-13T20:12:24.973Z,98395.00
2023-03-13T20:15:24.278Z,98421.00
2023-03-13T20:18:54.501Z,98415.00
2023-03-13T20:21:42.617Z,98414.00
2023-03-13T20:24:23.066Z,98407.00
2023-03-13T20:27:06.436Z,98390.00
2023-03-13T20:29:58.345Z,98375.00
2023-03-13T20:32:39.471Z,98342.00
2023-03-13T20:35:16.885Z,98335.00
2023-03-13T20:40:59.903Z,98329.00
2023-03-13T20:43:35.544Z,98328.00
2023-03-13T20:46:06.386Z,98335.00
2023-03-13T20:53:24.413Z,98332.00
2023-03-13T20:56:07.280Z,98332.00
2023-03-13T20:59:47.656Z,98353.00
2023-03-13T21:02:57.521Z,98341.00
2023-03-13T21:09:21.118Z,98335.00
2023-03-13T21:12:02.507Z,98335.00
2023-03-13T21:14:33.885Z,98330.00
2023-03-13T21:17:48.415Z,98333.00
2023-03-13T21:20:48.362Z,98343.00
2023-03-13T21:30:30.510Z,98335.00
2023-03-13T21:39:42.724Z,98355.00
2023-03-13T21:42:59.332Z,98348.00
2023-03-13T21:48:51.840Z,98341.00
2023-03-13T21:51:33.623Z,98345.00
2023-03-13T21:54:06.338Z,98348.00
2023-03-13T21:56:35.827Z,98344.00
2023-03-13T22:02:26.841Z,98366.00
2023-03-13T22:05:17.826Z,98361.00
2023-03-13T22:07:56.562Z,98359.00
2023-03-13T22:10:54.908Z,98367.00
2023-03-13T22:13:34.680Z,98381.00
2023-03-13T22:16:58.761Z,98382.00
2023-03-13T22:19:36.818Z,98398.00
2023-03-13T22:22:11.655Z,98422.00
2023-03-13T22:24:45.987Z,98426.00
2023-03-13T22:27:29.289Z,98424.00
2023-03-13T22:30:00.429Z,98414.00
2023-03-13T22:32:29.758Z,98424.00
2023-03-13T22:35:06.128Z,98403.00
2023-03-13T22:46:06.409Z,98391.00
2023-03-13T22:48:34.078Z,98401.00
2023-03-13T22:51:03.363Z,98391.00
2023-03-13T22:53:31.286Z,98391.00
2023-03-13T22:55:58.833Z,98387.00
2023-03-13T22:58:26.719Z,98391.00
2023-03-13T23:00:55.057Z,98385.00
2023-03-13T23:03:23.145Z,98385.00
2023-03-13T23:05:50.511Z,98383.00
2023-03-13T23:08:18.365Z,98381.00
2023-03-13T23:10:46.888Z,98367.00
2023-03-13T23:13:15.153Z,98365.00
2023-03-13T23:15:57.648Z,98360.00
2023-03-13T23:18:26.912Z,98367.00
2023-03-13T23:20:54.991Z,98340.00
2023-03-13T23:23:22.442Z,98316.00
2023-03-13T23:25:49.833Z,98256.00
2023-03-13T23:28:17.257Z,98239.00
2023-03-13T23:30:44.548Z,98246.00
2023-03-13T23:33:11.915Z,98222.00
2023-03-13T23:35:40.050Z,98218.00
2023-03-13T23:38:07.387Z,98202.00
2023-03-13T23:40:34.720Z,98198.00
2023-03-13T23:43:02.660Z,98186.00
2023-03-13T23:45:30.263Z,98186.00
2023-03-13T23:47:57.661Z,98175.00
2023-03-13T23:50:25.024Z,98187.00
2023-03-13T23:52:54.825Z,98178.00
2023-03-13T23:55:22.330Z,98172.00
2023-03-13T23:57:49.993Z,98160.00
